Terminal Aerodrome Forecast
Issued by NWS Bismarck, ND

Home | Current Version | Previous Version | Text Only | Print | Product List | Glossary On
Versions: 1 2 3 4 5 6 7 8 9 10 11 12 13 14 15 16
000
FTUS43 KBIS 210527
TAFISN
TAF
KISN 210527Z 2106/2206 17006KT P6SM SKC
     FM211100 21004KT P6SM SCT100 BKN120
     FM211600 26008KT P6SM BKN070 BKN090
     FM212200 29010KT P6SM SCT110 BKN120=

USA.gov is the U.S. government's official web portal to all federal, state and local government web resources and services.